sensor_id;sensor_type;location;lat;lon;timestamp;P1;durP1;ratioP1;P2;durP2;ratioP2
83145;SDS011;73037;51.110;4.706;2024-02-04T00:00:44;23.23;;;8.90;;
83145;SDS011;73037;51.110;4.706;2024-02-04T00:03:10;20.85;;;8.63;;
83145;SDS011;73037;51.110;4.706;2024-02-04T00:05:35;20.75;;;9.07;;
83145;SDS011;73037;51.110;4.706;2024-02-04T00:08:01;20.08;;;8.98;;
83145;SDS011;73037;51.110;4.706;2024-02-04T00:10:27;26.88;;;8.93;;
83145;SDS011;73037;51.110;4.706;2024-02-04T00:12:53;20.08;;;8.45;;
83145;SDS011;73037;51.110;4.706;2024-02-04T00:15:19;21.55;;;8.95;;
83145;SDS011;73037;51.110;4.706;2024-02-04T00:17:45;22.77;;;8.80;;
83145;SDS011;73037;51.110;4.706;2024-02-04T00:20:10;19.75;;;7.95;;
83145;SDS011;73037;51.110;4.706;2024-02-04T00:22:36;21.52;;;8.23;;
83145;SDS011;73037;51.110;4.706;2024-02-04T00:25:02;24.63;;;8.75;;
83145;SDS011;73037;51.110;4.706;2024-02-04T00:27:33;17.65;;;8.02;;
83145;SDS011;73037;51.110;4.706;2024-02-04T00:29:59;20.05;;;7.88;;
83145;SDS011;73037;51.110;4.706;2024-02-04T00:32:25;19.48;;;8.00;;
83145;SDS011;73037;51.110;4.706;2024-02-04T00:34:52;19.15;;;8.07;;
83145;SDS011;73037;51.110;4.706;2024-02-04T00:37:18;19.58;;;8.02;;
83145;SDS011;73037;51.110;4.706;2024-02-04T00:39:43;22.23;;;8.10;;
83145;SDS011;73037;51.110;4.706;2024-02-04T00:42:09;22.05;;;7.78;;
83145;SDS011;73037;51.110;4.706;2024-02-04T00:44:35;21.58;;;8.30;;
83145;SDS011;73037;51.110;4.706;2024-02-04T00:47:01;21.52;;;8.30;;
83145;SDS011;73037;51.110;4.706;2024-02-04T00:49:27;17.45;;;8.10;;
83145;SDS011;73037;51.110;4.706;2024-02-04T00:51:53;20.17;;;7.93;;
83145;SDS011;73037;51.110;4.706;2024-02-04T00:54:18;20.88;;;7.75;;
83145;SDS011;73037;51.110;4.706;2024-02-04T00:56:44;20.15;;;7.97;;
83145;SDS011;73037;51.110;4.706;2024-02-04T00:59:10;18.48;;;7.82;;
83145;SDS011;73037;51.110;4.706;2024-02-04T01:01:37;24.02;;;8.63;;
83145;SDS011;73037;51.110;4.706;2024-02-04T01:04:03;22.45;;;8.02;;
83145;SDS011;73037;51.110;4.706;2024-02-04T01:06:28;27.65;;;8.55;;
83145;SDS011;73037;51.110;4.706;2024-02-04T01:08:55;19.95;;;7.80;;
83145;SDS011;73037;51.110;4.706;2024-02-04T01:13:47;21.38;;;8.32;;
83145;SDS011;73037;51.110;4.706;2024-02-04T01:16:13;21.38;;;8.23;;
83145;SDS011;73037;51.110;4.706;2024-02-04T01:18:38;20.17;;;8.80;;
83145;SDS011;73037;51.110;4.706;2024-02-04T01:21:04;23.35;;;8.63;;
83145;SDS011;73037;51.110;4.706;2024-02-04T01:23:30;25.15;;;8.63;;
83145;SDS011;73037;51.110;4.706;2024-02-04T01:25:55;23.48;;;9.27;;
83145;SDS011;73037;51.110;4.706;2024-02-04T01:28:21;21.08;;;9.00;;
83145;SDS011;73037;51.110;4.706;2024-02-04T01:30:47;21.95;;;8.30;;
83145;SDS011;73037;51.110;4.706;2024-02-04T01:33:12;22.27;;;8.32;;
83145;SDS011;73037;51.110;4.706;2024-02-04T01:35:38;19.67;;;7.43;;
83145;SDS011;73037;51.110;4.706;2024-02-04T01:38:04;24.05;;;7.57;;
83145;SDS011;73037;51.110;4.706;2024-02-04T01:40:29;20.35;;;8.02;;
83145;SDS011;73037;51.110;4.706;2024-02-04T01:42:55;18.42;;;7.82;;
83145;SDS011;73037;51.110;4.706;2024-02-04T01:45:21;23.38;;;8.25;;
83145;SDS011;73037;51.110;4.706;2024-02-04T01:47:47;19.67;;;8.23;;
83145;SDS011;73037;51.110;4.706;2024-02-04T01:50:13;17.88;;;6.93;;
83145;SDS011;73037;51.110;4.706;2024-02-04T01:52:40;16.98;;;7.70;;
83145;SDS011;73037;51.110;4.706;2024-02-04T01:55:09;18.52;;;7.63;;
83145;SDS011;73037;51.110;4.706;2024-02-04T01:57:34;20.35;;;7.60;;
83145;SDS011;73037;51.110;4.706;2024-02-04T02:00:00;21.17;;;7.68;;
83145;SDS011;73037;51.110;4.706;2024-02-04T02:02:29;19.77;;;7.30;;
83145;SDS011;73037;51.110;4.706;2024-02-04T02:04:56;17.65;;;7.57;;
83145;SDS011;73037;51.110;4.706;2024-02-04T02:07:22;20.95;;;7.63;;
83145;SDS011;73037;51.110;4.706;2024-02-04T02:09:52;22.42;;;7.72;;
83145;SDS011;73037;51.110;4.706;2024-02-04T02:12:30;19.13;;;7.55;;
83145;SDS011;73037;51.110;4.706;2024-02-04T02:15:07;23.77;;;9.00;;
83145;SDS011;73037;51.110;4.706;2024-02-04T02:17:38;20.95;;;7.85;;
83145;SDS011;73037;51.110;4.706;2024-02-04T02:25:25;22.42;;;7.82;;
83145;SDS011;73037;51.110;4.706;2024-02-04T02:27:51;22.33;;;8.38;;
83145;SDS011;73037;51.110;4.706;2024-02-04T02:30:17;24.10;;;8.70;;
83145;SDS011;73037;51.110;4.706;2024-02-04T02:32:45;23.63;;;8.70;;
83145;SDS011;73037;51.110;4.706;2024-02-04T02:35:14;27.77;;;8.25;;
83145;SDS011;73037;51.110;4.706;2024-02-04T02:40:26;20.98;;;8.80;;
83145;SDS011;73037;51.110;4.706;2024-02-04T02:43:01;26.55;;;8.70;;
83145;SDS011;73037;51.110;4.706;2024-02-04T02:45:28;25.00;;;8.68;;
83145;SDS011;73037;51.110;4.706;2024-02-04T02:47:54;22.45;;;8.55;;
83145;SDS011;73037;51.110;4.706;2024-02-04T02:50:20;24.73;;;8.35;;
83145;SDS011;73037;51.110;4.706;2024-02-04T02:52:46;28.65;;;9.18;;
83145;SDS011;73037;51.110;4.706;2024-02-04T02:55:12;30.20;;;8.95;;
83145;SDS011;73037;51.110;4.706;2024-02-04T02:57:38;27.40;;;9.05;;
83145;SDS011;73037;51.110;4.706;2024-02-04T03:00:04;21.00;;;8.40;;
83145;SDS011;73037;51.110;4.706;2024-02-04T03:02:31;30.33;;;9.70;;
83145;SDS011;73037;51.110;4.706;2024-02-04T03:04:57;27.92;;;9.50;;
83145;SDS011;73037;51.110;4.706;2024-02-04T03:07:23;22.20;;;9.20;;
83145;SDS011;73037;51.110;4.706;2024-02-04T03:09:48;26.00;;;9.82;;
83145;SDS011;73037;51.110;4.706;2024-02-04T03:12:14;25.40;;;9.30;;
83145;SDS011;73037;51.110;4.706;2024-02-04T03:14:40;24.85;;;9.57;;
83145;SDS011;73037;51.110;4.706;2024-02-04T03:17:05;27.60;;;10.25;;
83145;SDS011;73037;51.110;4.706;2024-02-04T03:19:31;31.17;;;10.48;;
83145;SDS011;73037;51.110;4.706;2024-02-04T03:21:57;24.27;;;10.25;;
83145;SDS011;73037;51.110;4.706;2024-02-04T03:24:22;25.75;;;10.20;;
83145;SDS011;73037;51.110;4.706;2024-02-04T03:26:48;31.05;;;10.40;;
83145;SDS011;73037;51.110;4.706;2024-02-04T03:29:13;24.30;;;10.30;;
83145;SDS011;73037;51.110;4.706;2024-02-04T03:31:39;25.75;;;9.60;;
83145;SDS011;73037;51.110;4.706;2024-02-04T03:34:05;27.88;;;9.90;;
83145;SDS011;73037;51.110;4.706;2024-02-04T03:36:30;29.20;;;10.07;;
83145;SDS011;73037;51.110;4.706;2024-02-04T03:38:56;28.70;;;9.93;;
83145;SDS011;73037;51.110;4.706;2024-02-04T03:41:22;25.40;;;10.43;;
83145;SDS011;73037;51.110;4.706;2024-02-04T03:43:48;27.90;;;10.45;;
83145;SDS011;73037;51.110;4.706;2024-02-04T03:46:14;28.92;;;9.80;;
83145;SDS011;73037;51.110;4.706;2024-02-04T03:48:40;25.30;;;9.02;;
83145;SDS011;73037;51.110;4.706;2024-02-04T03:51:06;26.55;;;9.88;;
83145;SDS011;73037;51.110;4.706;2024-02-04T03:53:32;26.27;;;9.13;;
83145;SDS011;73037;51.110;4.706;2024-02-04T03:55:58;27.08;;;9.52;;
83145;SDS011;73037;51.110;4.706;2024-02-04T03:58:24;29.10;;;8.95;;
83145;SDS011;73037;51.110;4.706;2024-02-04T04:00:57;24.55;;;9.02;;
83145;SDS011;73037;51.110;4.706;2024-02-04T04:03:23;23.00;;;8.50;;
83145;SDS011;73037;51.110;4.706;2024-02-04T04:05:49;22.30;;;8.60;;
83145;SDS011;73037;51.110;4.706;2024-02-04T04:08:15;24.90;;;8.90;;
83145;SDS011;73037;51.110;4.706;2024-02-04T04:13:08;25.00;;;7.28;;
83145;SDS011;73037;51.110;4.706;2024-02-04T04:15:33;19.77;;;8.07;;
83145;SDS011;73037;51.110;4.706;2024-02-04T04:17:59;19.65;;;7.65;;
83145;SDS011;73037;51.110;4.706;2024-02-04T04:20:24;18.20;;;7.82;;
83145;SDS011;73037;51.110;4.706;2024-02-04T04:22:50;19.13;;;7.88;;
83145;SDS011;73037;51.110;4.706;2024-02-04T04:25:16;16.92;;;7.40;;
83145;SDS011;73037;51.110;4.706;2024-02-04T04:27:42;21.88;;;7.93;;
83145;SDS011;73037;51.110;4.706;2024-02-04T04:30:09;17.05;;;7.72;;
83145;SDS011;73037;51.110;4.706;2024-02-04T04:32:35;18.95;;;7.63;;
83145;SDS011;73037;51.110;4.706;2024-02-04T04:35:00;20.27;;;7.25;;
83145;SDS011;73037;51.110;4.706;2024-02-04T04:37:26;20.38;;;7.47;;
83145;SDS011;73037;51.110;4.706;2024-02-04T04:39:52;14.35;;;6.90;;
83145;SDS011;73037;51.110;4.706;2024-02-04T04:42:17;17.40;;;7.32;;
83145;SDS011;73037;51.110;4.706;2024-02-04T04:44:43;16.40;;;6.95;;
83145;SDS011;73037;51.110;4.706;2024-02-04T04:47:09;16.45;;;6.25;;
83145;SDS011;73037;51.110;4.706;2024-02-04T04:49:34;13.27;;;5.45;;
83145;SDS011;73037;51.110;4.706;2024-02-04T04:52:00;16.15;;;6.53;;
83145;SDS011;73037;51.110;4.706;2024-02-04T04:54:27;15.68;;;6.25;;
83145;SDS011;73037;51.110;4.706;2024-02-04T04:56:53;17.42;;;6.43;;
83145;SDS011;73037;51.110;4.706;2024-02-04T04:59:19;18.25;;;6.63;;
83145;SDS011;73037;51.110;4.706;2024-02-04T05:01:45;19.20;;;6.30;;
83145;SDS011;73037;51.110;4.706;2024-02-04T05:04:11;15.95;;;6.35;;
83145;SDS011;73037;51.110;4.706;2024-02-04T05:06:37;13.52;;;5.93;;
83145;SDS011;73037;51.110;4.706;2024-02-04T05:09:02;15.23;;;5.88;;
83145;SDS011;73037;51.110;4.706;2024-02-04T05:11:28;15.50;;;5.70;;
83145;SDS011;73037;51.110;4.706;2024-02-04T05:13:54;12.52;;;5.60;;
83145;SDS011;73037;51.110;4.706;2024-02-04T05:16:19;17.92;;;6.47;;
83145;SDS011;73037;51.110;4.706;2024-02-04T05:18:45;14.48;;;5.80;;
83145;SDS011;73037;51.110;4.706;2024-02-04T05:21:11;15.10;;;6.50;;
83145;SDS011;73037;51.110;4.706;2024-02-04T05:23:37;18.73;;;6.03;;
83145;SDS011;73037;51.110;4.706;2024-02-04T05:26:05;19.85;;;5.75;;
83145;SDS011;73037;51.110;4.706;2024-02-04T05:28:32;14.18;;;5.68;;
83145;SDS011;73037;51.110;4.706;2024-02-04T05:30:58;19.67;;;6.15;;
83145;SDS011;73037;51.110;4.706;2024-02-04T05:33:23;14.55;;;5.32;;
83145;SDS011;73037;51.110;4.706;2024-02-04T05:35:49;15.93;;;5.65;;
83145;SDS011;73037;51.110;4.706;2024-02-04T05:38:18;19.45;;;6.60;;
83145;SDS011;73037;51.110;4.706;2024-02-04T05:40:43;18.35;;;5.68;;
83145;SDS011;73037;51.110;4.706;2024-02-04T05:43:09;11.73;;;5.72;;
83145;SDS011;73037;51.110;4.706;2024-02-04T05:45:35;14.10;;;5.22;;
83145;SDS011;73037;51.110;4.706;2024-02-04T05:48:06;13.13;;;5.22;;
83145;SDS011;73037;51.110;4.706;2024-02-04T05:50:32;12.98;;;5.63;;
83145;SDS011;73037;51.110;4.706;2024-02-04T05:52:58;11.90;;;4.90;;
83145;SDS011;73037;51.110;4.706;2024-02-04T05:55:24;14.95;;;5.80;;
83145;SDS011;73037;51.110;4.706;2024-02-04T05:57:49;12.57;;;5.28;;
83145;SDS011;73037;51.110;4.706;2024-02-04T06:00:15;12.38;;;5.40;;
83145;SDS011;73037;51.110;4.706;2024-02-04T06:02:41;15.25;;;5.90;;
83145;SDS011;73037;51.110;4.706;2024-02-04T06:05:11;12.68;;;5.00;;
83145;SDS011;73037;51.110;4.706;2024-02-04T06:07:37;14.05;;;5.72;;
83145;SDS011;73037;51.110;4.706;2024-02-04T06:10:03;14.18;;;5.55;;
83145;SDS011;73037;51.110;4.706;2024-02-04T06:12:29;16.15;;;6.28;;
83145;SDS011;73037;51.110;4.706;2024-02-04T06:14:55;13.85;;;5.78;;
83145;SDS011;73037;51.110;4.706;2024-02-04T06:17:20;12.05;;;5.63;;
83145;SDS011;73037;51.110;4.706;2024-02-04T06:19:46;17.67;;;6.03;;
83145;SDS011;73037;51.110;4.706;2024-02-04T06:22:12;16.05;;;5.43;;
83145;SDS011;73037;51.110;4.706;2024-02-04T06:24:39;14.98;;;5.35;;
83145;SDS011;73037;51.110;4.706;2024-02-04T06:27:06;15.15;;;5.70;;
83145;SDS011;73037;51.110;4.706;2024-02-04T06:29:33;13.55;;;6.25;;
83145;SDS011;73037;51.110;4.706;2024-02-04T06:31:58;16.02;;;5.53;;
83145;SDS011;73037;51.110;4.706;2024-02-04T06:34:24;14.23;;;5.85;;
83145;SDS011;73037;51.110;4.706;2024-02-04T06:36:50;15.40;;;5.60;;
83145;SDS011;73037;51.110;4.706;2024-02-04T06:39:16;14.52;;;5.53;;
83145;SDS011;73037;51.110;4.706;2024-02-04T06:41:41;14.07;;;5.68;;
83145;SDS011;73037;51.110;4.706;2024-02-04T06:44:07;16.85;;;6.32;;
83145;SDS011;73037;51.110;4.706;2024-02-04T06:46:33;13.30;;;5.50;;
83145;SDS011;73037;51.110;4.706;2024-02-04T06:48:58;22.45;;;6.05;;
83145;SDS011;73037;51.110;4.706;2024-02-04T06:51:24;17.92;;;5.75;;
83145;SDS011;73037;51.110;4.706;2024-02-04T06:53:50;19.02;;;6.13;;
83145;SDS011;73037;51.110;4.706;2024-02-04T06:56:16;17.08;;;5.90;;
83145;SDS011;73037;51.110;4.706;2024-02-04T06:58:42;13.75;;;5.35;;
83145;SDS011;73037;51.110;4.706;2024-02-04T07:01:08;14.80;;;5.35;;
83145;SDS011;73037;51.110;4.706;2024-02-04T07:03:34;14.27;;;4.63;;
83145;SDS011;73037;51.110;4.706;2024-02-04T07:06:00;11.75;;;4.82;;
83145;SDS011;73037;51.110;4.706;2024-02-04T07:08:26;10.40;;;4.22;;
83145;SDS011;73037;51.110;4.706;2024-02-04T07:10:52;13.43;;;4.20;;
83145;SDS011;73037;51.110;4.706;2024-02-04T07:13:18;11.15;;;4.25;;
83145;SDS011;73037;51.110;4.706;2024-02-04T07:15:44;9.23;;;3.97;;
83145;SDS011;73037;51.110;4.706;2024-02-04T07:18:10;12.43;;;4.43;;
83145;SDS011;73037;51.110;4.706;2024-02-04T07:20:36;12.15;;;4.18;;
83145;SDS011;73037;51.110;4.706;2024-02-04T07:23:02;9.02;;;3.90;;
83145;SDS011;73037;51.110;4.706;2024-02-04T07:25:28;10.30;;;4.03;;
83145;SDS011;73037;51.110;4.706;2024-02-04T07:27:54;12.05;;;4.50;;
83145;SDS011;73037;51.110;4.706;2024-02-04T07:32:47;8.52;;;3.15;;
83145;SDS011;73037;51.110;4.706;2024-02-04T07:35:12;14.35;;;4.38;;
83145;SDS011;73037;51.110;4.706;2024-02-04T07:37:38;10.43;;;3.90;;
83145;SDS011;73037;51.110;4.706;2024-02-04T07:40:04;10.05;;;4.00;;
83145;SDS011;73037;51.110;4.706;2024-02-04T07:42:31;10.63;;;4.68;;
83145;SDS011;73037;51.110;4.706;2024-02-04T07:44:57;9.68;;;3.70;;
83145;SDS011;73037;51.110;4.706;2024-02-04T07:47:23;10.80;;;3.88;;
83145;SDS011;73037;51.110;4.706;2024-02-04T07:49:49;12.45;;;4.50;;
83145;SDS011;73037;51.110;4.706;2024-02-04T07:52:15;12.20;;;5.13;;
83145;SDS011;73037;51.110;4.706;2024-02-04T07:54:41;11.43;;;4.75;;
83145;SDS011;73037;51.110;4.706;2024-02-04T07:59:34;11.57;;;4.65;;
83145;SDS011;73037;51.110;4.706;2024-02-04T08:02:00;11.60;;;5.00;;
83145;SDS011;73037;51.110;4.706;2024-02-04T08:04:26;14.90;;;5.13;;
83145;SDS011;73037;51.110;4.706;2024-02-04T08:06:51;12.95;;;5.35;;
83145;SDS011;73037;51.110;4.706;2024-02-04T08:09:18;15.20;;;5.53;;
83145;SDS011;73037;51.110;4.706;2024-02-04T08:11:43;14.13;;;5.22;;
83145;SDS011;73037;51.110;4.706;2024-02-04T08:14:09;15.25;;;5.32;;
83145;SDS011;73037;51.110;4.706;2024-02-04T08:16:35;12.02;;;5.47;;
83145;SDS011;73037;51.110;4.706;2024-02-04T08:19:00;13.23;;;5.25;;
83145;SDS011;73037;51.110;4.706;2024-02-04T08:21:26;11.25;;;5.10;;
83145;SDS011;73037;51.110;4.706;2024-02-04T08:23:52;14.63;;;5.20;;
83145;SDS011;73037;51.110;4.706;2024-02-04T08:26:17;12.48;;;5.32;;
83145;SDS011;73037;51.110;4.706;2024-02-04T08:28:43;13.32;;;4.93;;
83145;SDS011;73037;51.110;4.706;2024-02-04T08:31:09;15.55;;;5.63;;
83145;SDS011;73037;51.110;4.706;2024-02-04T08:33:34;14.45;;;4.15;;
83145;SDS011;73037;51.110;4.706;2024-02-04T08:36:00;7.70;;;4.47;;
83145;SDS011;73037;51.110;4.706;2024-02-04T08:38:26;11.68;;;4.93;;
83145;SDS011;73037;51.110;4.706;2024-02-04T08:40:51;9.45;;;4.63;;
83145;SDS011;73037;51.110;4.706;2024-02-04T08:43:17;12.52;;;4.95;;
83145;SDS011;73037;51.110;4.706;2024-02-04T08:45:43;11.20;;;4.45;;
83145;SDS011;73037;51.110;4.706;2024-02-04T08:48:08;10.98;;;4.13;;
83145;SDS011;73037;51.110;4.706;2024-02-04T08:50:34;10.50;;;4.53;;
83145;SDS011;73037;51.110;4.706;2024-02-04T08:52:59;9.50;;;4.40;;
83145;SDS011;73037;51.110;4.706;2024-02-04T08:55:25;9.18;;;4.18;;
83145;SDS011;73037;51.110;4.706;2024-02-04T08:57:51;9.00;;;4.20;;
83145;SDS011;73037;51.110;4.706;2024-02-04T09:05:11;8.88;;;4.30;;
83145;SDS011;73037;51.110;4.706;2024-02-04T09:07:37;9.75;;;4.40;;
83145;SDS011;73037;51.110;4.706;2024-02-04T09:10:04;10.07;;;4.60;;
83145;SDS011;73037;51.110;4.706;2024-02-04T09:12:30;7.43;;;4.63;;
83145;SDS011;73037;51.110;4.706;2024-02-04T09:14:56;11.57;;;4.35;;
83145;SDS011;73037;51.110;4.706;2024-02-04T09:17:21;8.68;;;4.43;;
83145;SDS011;73037;51.110;4.706;2024-02-04T09:19:47;9.98;;;4.55;;
83145;SDS011;73037;51.110;4.706;2024-02-04T09:22:12;9.85;;;4.28;;
83145;SDS011;73037;51.110;4.706;2024-02-04T09:24:38;8.73;;;4.35;;
83145;SDS011;73037;51.110;4.706;2024-02-04T09:27:04;5.97;;;4.32;;
83145;SDS011;73037;51.110;4.706;2024-02-04T09:29:30;12.13;;;5.07;;
83145;SDS011;73037;51.110;4.706;2024-02-04T09:31:55;6.80;;;3.72;;
83145;SDS011;73037;51.110;4.706;2024-02-04T09:34:21;8.85;;;4.60;;
83145;SDS011;73037;51.110;4.706;2024-02-04T09:36:47;11.48;;;4.80;;
83145;SDS011;73037;51.110;4.706;2024-02-04T09:39:12;10.55;;;4.45;;
83145;SDS011;73037;51.110;4.706;2024-02-04T09:41:38;10.82;;;4.88;;
83145;SDS011;73037;51.110;4.706;2024-02-04T09:44:04;9.13;;;4.88;;
83145;SDS011;73037;51.110;4.706;2024-02-04T09:46:31;13.65;;;4.80;;
83145;SDS011;73037;51.110;4.706;2024-02-04T09:48:57;10.20;;;4.70;;
83145;SDS011;73037;51.110;4.706;2024-02-04T09:51:23;11.38;;;4.85;;
83145;SDS011;73037;51.110;4.706;2024-02-04T09:53:51;9.93;;;4.30;;
83145;SDS011;73037;51.110;4.706;2024-02-04T09:56:18;10.35;;;4.60;;
83145;SDS011;73037;51.110;4.706;2024-02-04T09:58:47;12.52;;;4.78;;
83145;SDS011;73037;51.110;4.706;2024-02-04T10:01:13;10.75;;;4.40;;
83145;SDS011;73037;51.110;4.706;2024-02-04T10:03:41;10.50;;;3.90;;
83145;SDS011;73037;51.110;4.706;2024-02-04T10:06:07;8.20;;;3.97;;
83145;SDS011;73037;51.110;4.706;2024-02-04T10:08:34;7.40;;;4.43;;
83145;SDS011;73037;51.110;4.706;2024-02-04T10:11:01;8.93;;;4.40;;
83145;SDS011;73037;51.110;4.706;2024-02-04T10:13:27;9.43;;;4.03;;
83145;SDS011;73037;51.110;4.706;2024-02-04T10:15:52;10.00;;;3.60;;
83145;SDS011;73037;51.110;4.706;2024-02-04T10:18:18;8.93;;;3.58;;
83145;SDS011;73037;51.110;4.706;2024-02-04T10:20:44;7.00;;;3.70;;
83145;SDS011;73037;51.110;4.706;2024-02-04T10:23:09;7.43;;;3.42;;
83145;SDS011;73037;51.110;4.706;2024-02-04T10:25:35;7.38;;;3.28;;
83145;SDS011;73037;51.110;4.706;2024-02-04T10:28:01;9.35;;;3.47;;
83145;SDS011;73037;51.110;4.706;2024-02-04T10:30:27;5.07;;;3.55;;
83145;SDS011;73037;51.110;4.706;2024-02-04T10:32:53;5.32;;;3.40;;
83145;SDS011;73037;51.110;4.706;2024-02-04T10:35:29;6.15;;;3.17;;
83145;SDS011;73037;51.110;4.706;2024-02-04T10:37:54;5.55;;;3.03;;
83145;SDS011;73037;51.110;4.706;2024-02-04T10:40:20;6.25;;;2.80;;
83145;SDS011;73037;51.110;4.706;2024-02-04T10:42:46;8.07;;;3.03;;
83145;SDS011;73037;51.110;4.706;2024-02-04T10:45:13;8.00;;;2.90;;
83145;SDS011;73037;51.110;4.706;2024-02-04T10:47:42;4.93;;;3.08;;
83145;SDS011;73037;51.110;4.706;2024-02-04T10:55:09;4.85;;;2.80;;
83145;SDS011;73037;51.110;4.706;2024-02-04T10:57:39;5.57;;;2.92;;
83145;SDS011;73037;51.110;4.706;2024-02-04T11:00:06;7.13;;;2.97;;
83145;SDS011;73037;51.110;4.706;2024-02-04T11:02:36;7.88;;;3.40;;
83145;SDS011;73037;51.110;4.706;2024-02-04T11:05:04;6.75;;;3.17;;
83145;SDS011;73037;51.110;4.706;2024-02-04T11:07:34;6.93;;;2.60;;
83145;SDS011;73037;51.110;4.706;2024-02-04T11:10:03;8.80;;;3.22;;
83145;SDS011;73037;51.110;4.706;2024-02-04T11:12:30;5.22;;;2.45;;
83145;SDS011;73037;51.110;4.706;2024-02-04T11:15:00;7.85;;;2.75;;
83145;SDS011;73037;51.110;4.706;2024-02-04T11:20:28;7.05;;;3.05;;
83145;SDS011;73037;51.110;4.706;2024-02-04T11:26:02;6.28;;;3.05;;
83145;SDS011;73037;51.110;4.706;2024-02-04T11:28:29;6.10;;;3.20;;
83145;SDS011;73037;51.110;4.706;2024-02-04T11:30:56;6.18;;;3.38;;
83145;SDS011;73037;51.110;4.706;2024-02-04T11:33:22;6.13;;;3.50;;
83145;SDS011;73037;51.110;4.706;2024-02-04T11:36:12;6.57;;;3.13;;
83145;SDS011;73037;51.110;4.706;2024-02-04T11:38:38;4.95;;;3.20;;
83145;SDS011;73037;51.110;4.706;2024-02-04T11:41:04;6.72;;;3.30;;
83145;SDS011;73037;51.110;4.706;2024-02-04T11:43:34;7.53;;;3.30;;
83145;SDS011;73037;51.110;4.706;2024-02-04T11:46:04;8.95;;;3.63;;
83145;SDS011;73037;51.110;4.706;2024-02-04T11:48:31;5.35;;;2.95;;
83145;SDS011;73037;51.110;4.706;2024-02-04T11:50:58;6.97;;;3.67;;
83145;SDS011;73037;51.110;4.706;2024-02-04T11:53:26;5.30;;;3.25;;
83145;SDS011;73037;51.110;4.706;2024-02-04T11:55:55;7.78;;;3.85;;
83145;SDS011;73037;51.110;4.706;2024-02-04T11:58:21;6.80;;;3.47;;
83145;SDS011;73037;51.110;4.706;2024-02-04T12:00:47;10.27;;;4.10;;
83145;SDS011;73037;51.110;4.706;2024-02-04T12:05:40;9.23;;;3.80;;
83145;SDS011;73037;51.110;4.706;2024-02-04T12:08:06;7.50;;;3.75;;
83145;SDS011;73037;51.110;4.706;2024-02-04T12:13:01;7.78;;;3.03;;
83145;SDS011;73037;51.110;4.706;2024-02-04T12:15:28;9.20;;;3.00;;
83145;SDS011;73037;51.110;4.706;2024-02-04T12:18:10;6.53;;;3.10;;
83145;SDS011;73037;51.110;4.706;2024-02-04T12:20:39;5.38;;;2.65;;
83145;SDS011;73037;51.110;4.706;2024-02-04T12:23:05;7.20;;;2.90;;
83145;SDS011;73037;51.110;4.706;2024-02-04T12:25:32;8.13;;;3.17;;
83145;SDS011;73037;51.110;4.706;2024-02-04T12:35:26;5.65;;;2.45;;
83145;SDS011;73037;51.110;4.706;2024-02-04T12:37:55;4.50;;;2.08;;
83145;SDS011;73037;51.110;4.706;2024-02-04T12:40:23;8.88;;;2.85;;
83145;SDS011;73037;51.110;4.706;2024-02-04T12:42:56;5.90;;;2.40;;
83145;SDS011;73037;51.110;4.706;2024-02-04T12:45:23;4.95;;;2.40;;
83145;SDS011;73037;51.110;4.706;2024-02-04T12:47:52;6.05;;;2.40;;
83145;SDS011;73037;51.110;4.706;2024-02-04T12:50:19;5.00;;;2.28;;
83145;SDS011;73037;51.110;4.706;2024-02-04T12:52:46;5.45;;;2.47;;
83145;SDS011;73037;51.110;4.706;2024-02-04T12:55:26;4.05;;;2.40;;
83145;SDS011;73037;51.110;4.706;2024-02-04T12:58:03;4.65;;;2.13;;
83145;SDS011;73037;51.110;4.706;2024-02-04T13:00:39;4.30;;;2.20;;
83145;SDS011;73037;51.110;4.706;2024-02-04T13:03:07;3.40;;;2.00;;
83145;SDS011;73037;51.110;4.706;2024-02-04T13:05:33;6.00;;;2.65;;
83145;SDS011;73037;51.110;4.706;2024-02-04T13:08:00;4.75;;;2.45;;
83145;SDS011;73037;51.110;4.706;2024-02-04T13:10:31;6.28;;;2.95;;
83145;SDS011;73037;51.110;4.706;2024-02-04T13:13:05;7.68;;;2.70;;
83145;SDS011;73037;51.110;4.706;2024-02-04T13:15:34;5.38;;;2.42;;
83145;SDS011;73037;51.110;4.706;2024-02-04T13:18:04;5.05;;;2.58;;
83145;SDS011;73037;51.110;4.706;2024-02-04T13:20:30;4.70;;;2.35;;
83145;SDS011;73037;51.110;4.706;2024-02-04T13:22:56;6.95;;;2.58;;
83145;SDS011;73037;51.110;4.706;2024-02-04T13:25:22;3.92;;;2.67;;
83145;SDS011;73037;51.110;4.706;2024-02-04T13:27:48;4.50;;;2.38;;
83145;SDS011;73037;51.110;4.706;2024-02-04T13:30:15;4.43;;;2.17;;
83145;SDS011;73037;51.110;4.706;2024-02-04T13:32:42;3.85;;;2.20;;
83145;SDS011;73037;51.110;4.706;2024-02-04T13:42:33;2.92;;;1.80;;
83145;SDS011;73037;51.110;4.706;2024-02-04T13:45:00;4.15;;;1.90;;
83145;SDS011;73037;51.110;4.706;2024-02-04T13:52:19;4.30;;;1.67;;
83145;SDS011;73037;51.110;4.706;2024-02-04T13:54:44;5.53;;;1.90;;
83145;SDS011;73037;51.110;4.706;2024-02-04T13:57:10;3.20;;;1.65;;
83145;SDS011;73037;51.110;4.706;2024-02-04T13:59:36;2.78;;;1.50;;
83145;SDS011;73037;51.110;4.706;2024-02-04T14:02:01;3.17;;;1.60;;
83145;SDS011;73037;51.110;4.706;2024-02-04T14:04:27;5.63;;;1.90;;
83145;SDS011;73037;51.110;4.706;2024-02-04T14:06:54;3.15;;;1.60;;
83145;SDS011;73037;51.110;4.706;2024-02-04T14:09:20;3.47;;;1.55;;
83145;SDS011;73037;51.110;4.706;2024-02-04T14:11:46;2.83;;;1.65;;
83145;SDS011;73037;51.110;4.706;2024-02-04T14:14:12;2.83;;;1.40;;
83145;SDS011;73037;51.110;4.706;2024-02-04T14:16:37;4.18;;;1.58;;
83145;SDS011;73037;51.110;4.706;2024-02-04T14:19:04;3.20;;;1.60;;
83145;SDS011;73037;51.110;4.706;2024-02-04T14:21:30;4.15;;;1.67;;
83145;SDS011;73037;51.110;4.706;2024-02-04T14:23:55;4.90;;;1.67;;
83145;SDS011;73037;51.110;4.706;2024-02-04T14:26:21;3.90;;;1.48;;
83145;SDS011;73037;51.110;4.706;2024-02-04T14:28:47;2.80;;;1.58;;
83145;SDS011;73037;51.110;4.706;2024-02-04T14:31:13;2.65;;;1.30;;
83145;SDS011;73037;51.110;4.706;2024-02-04T14:33:40;3.67;;;1.60;;
83145;SDS011;73037;51.110;4.706;2024-02-04T14:36:06;3.42;;;1.58;;
83145;SDS011;73037;51.110;4.706;2024-02-04T14:38:33;4.90;;;1.45;;
83145;SDS011;73037;51.110;4.706;2024-02-04T14:40:58;3.83;;;1.27;;
83145;SDS011;73037;51.110;4.706;2024-02-04T14:43:24;4.00;;;1.85;;
83145;SDS011;73037;51.110;4.706;2024-02-04T14:45:50;5.32;;;2.05;;
83145;SDS011;73037;51.110;4.706;2024-02-04T14:48:16;4.25;;;1.58;;
83145;SDS011;73037;51.110;4.706;2024-02-04T14:50:42;5.03;;;1.50;;
83145;SDS011;73037;51.110;4.706;2024-02-04T14:53:08;4.75;;;1.38;;
83145;SDS011;73037;51.110;4.706;2024-02-04T14:55:34;4.82;;;1.90;;
83145;SDS011;73037;51.110;4.706;2024-02-04T14:58:00;6.22;;;1.90;;
83145;SDS011;73037;51.110;4.706;2024-02-04T15:00:26;5.75;;;2.22;;
83145;SDS011;73037;51.110;4.706;2024-02-04T15:02:56;6.75;;;2.00;;
83145;SDS011;73037;51.110;4.706;2024-02-04T15:05:21;6.05;;;2.22;;
83145;SDS011;73037;51.110;4.706;2024-02-04T15:07:47;4.90;;;2.10;;
83145;SDS011;73037;51.110;4.706;2024-02-04T15:10:14;6.28;;;2.20;;
83145;SDS011;73037;51.110;4.706;2024-02-04T15:12:39;6.30;;;2.17;;
83145;SDS011;73037;51.110;4.706;2024-02-04T15:15:06;5.72;;;2.28;;
83145;SDS011;73037;51.110;4.706;2024-02-04T15:17:32;7.18;;;2.03;;
83145;SDS011;73037;51.110;4.706;2024-02-04T15:19:59;6.03;;;1.70;;
83145;SDS011;73037;51.110;4.706;2024-02-04T15:22:24;9.73;;;2.15;;
83145;SDS011;73037;51.110;4.706;2024-02-04T15:24:50;7.75;;;2.70;;
83145;SDS011;73037;51.110;4.706;2024-02-04T15:27:17;5.28;;;2.38;;
83145;SDS011;73037;51.110;4.706;2024-02-04T15:29:44;5.55;;;1.95;;
83145;SDS011;73037;51.110;4.706;2024-02-04T15:32:13;7.10;;;2.40;;